Terminal Aerodrome Forecast
Issued by NWS

Home | Current Version | Previous Version | Text Only | Print | Product List | Glossary On
Versions: 1 2 3 4 5 6 7 8 9 10 11 12 13 14 15 16 17 18 19 20 21 22
000
FTPA31 PHFO 012300
TAFKOA
TAF
PHKO 012340Z 0200/0224 28008KT P6SM FEW070
     FM020500 06006KT P6SM SCT050
     FM020700 11005KT P6SM SKC
     FM022100 23012KT P6SM FEW070=

USA.gov is the U.S. government's official web portal to all federal, state and local government web resources and services.